Archival Weather

Biggin Hill

Biggin Hill, United Kingdom (EGKB)

Report from: Thursday, February 22, 2024 9:50 AM GMT
Current time: Wednesday, April 24, 2024 8:55 PM BST

Current weather – Weather history – Daily summaries
Weather forecast

Present weatherLight drizzle
Temperature10.0°C (50.0°F)
Wind chill6.9°C (44.4°F)
Dew point9.0°C (48.2°F)
Winds 14 kts (7.2 m/s, 16.1 mph) South (180°)
Visibility1.9 mi. (3 km)
Clouds Ceiling: Broken clouds 400 ft. (122 m)
Altimeter29.00 in.Hg (982 mB)
Relative humidity94 %
Density altitude639 ft. (195 m)
Flight conditions Low Instrument Meteorological Conditions
Raw dataEGKB 220950Z 18014KT 3000 -DZ BKN004 10/09 Q0982
An error has occurred. This application may no longer respond until reloaded. Reload 🗙